createdAt,value
2023-04-16T00:02:21.884Z,3.19
2023-04-16T00:04:50.770Z,3.19
2023-04-16T00:07:18.195Z,3.17
2023-04-16T00:09:46.537Z,3.19
2023-04-16T00:12:14.814Z,3.14
2023-04-16T00:14:43.643Z,3.09
2023-04-16T00:17:11.175Z,3.01
2023-04-16T00:19:38.961Z,3.02
2023-04-16T00:22:07.720Z,2.99
2023-04-16T00:24:35.163Z,2.98
2023-04-16T00:27:02.536Z,3.01
2023-04-16T00:29:31.164Z,3.01
2023-04-16T00:31:58.611Z,2.98
2023-04-16T00:34:26.179Z,2.97
2023-04-16T00:36:53.452Z,2.95
2023-04-16T00:39:22.344Z,2.92
2023-04-16T00:41:49.630Z,2.87
2023-04-16T00:44:17.218Z,2.84
2023-04-16T00:46:46.164Z,2.83
2023-04-16T00:49:13.799Z,2.83
2023-04-16T00:51:41.792Z,2.78
2023-04-16T00:54:09.191Z,2.73
2023-04-16T00:56:38.890Z,2.73
2023-04-16T00:59:06.260Z,2.73
2023-04-16T01:01:33.717Z,2.69
2023-04-16T01:04:01.315Z,2.70
2023-04-16T01:06:29.036Z,2.66
2023-04-16T01:08:56.594Z,2.66
2023-04-16T01:11:24.671Z,2.63
2023-04-16T01:13:53.464Z,2.60
2023-04-16T01:16:21.424Z,2.61
2023-04-16T01:18:48.867Z,2.60
2023-04-16T01:21:17.815Z,2.56
2023-04-16T01:23:45.347Z,2.53
2023-04-16T01:26:13.024Z,2.52
2023-04-16T01:28:42.098Z,2.52
2023-04-16T01:31:09.636Z,2.51
2023-04-16T01:33:46.500Z,2.48
2023-04-16T01:36:13.894Z,2.46
2023-04-16T01:38:42.834Z,2.44
2023-04-16T01:41:10.198Z,2.44
2023-04-16T01:43:40.068Z,2.35
2023-04-16T01:46:16.087Z,2.37
2023-04-16T01:48:43.701Z,2.37
2023-04-16T01:51:11.146Z,2.35
2023-04-16T01:53:38.912Z,2.32
2023-04-16T01:56:08.179Z,2.26
2023-04-16T01:58:36.042Z,2.22
2023-04-16T02:01:04.565Z,2.20
2023-04-16T02:03:32.966Z,2.16
2023-04-16T02:06:01.378Z,2.15
2023-04-16T02:08:29.633Z,2.14
2023-04-16T02:10:57.940Z,2.14
2023-04-16T02:13:27.825Z,2.18
2023-04-16T02:15:55.592Z,2.18
2023-04-16T02:19:04.084Z,2.23
2023-04-16T02:21:34.670Z,2.20
2023-04-16T02:24:01.980Z,2.18
2023-04-16T02:26:31.066Z,2.16
2023-04-16T02:29:06.576Z,2.08
2023-04-16T02:31:40.545Z,2.03
2023-04-16T02:34:09.195Z,2.00
2023-04-16T02:36:36.738Z,1.97
2023-04-16T02:39:04.771Z,1.90
2023-04-16T02:41:32.216Z,1.90
2023-04-16T02:43:59.675Z,1.91
2023-04-16T02:46:29.229Z,1.91
2023-04-16T02:48:56.750Z,1.94
2023-04-16T02:51:24.159Z,1.95
2023-04-16T02:53:51.505Z,1.96
2023-04-16T02:56:18.890Z,1.99
2023-04-16T02:58:46.350Z,1.99
2023-04-16T03:01:13.727Z,2.04
2023-04-16T03:03:42.603Z,2.07
2023-04-16T03:06:09.955Z,2.07
2023-04-16T03:08:37.300Z,2.12
2023-04-16T03:11:04.993Z,2.13
2023-04-16T03:13:32.407Z,2.13
2023-04-16T03:16:00.219Z,2.15
2023-04-16T03:18:27.764Z,2.12
2023-04-16T03:20:56.441Z,2.13
2023-04-16T03:23:23.988Z,2.16
2023-04-16T03:25:51.304Z,2.14
2023-04-16T03:28:19.176Z,2.18
2023-04-16T03:30:51.420Z,2.15
2023-04-16T03:33:19.129Z,2.10
2023-04-16T03:35:46.624Z,2.06
2023-04-16T03:38:35.297Z,2.07
2023-04-16T03:41:02.575Z,2.13
2023-04-16T03:43:33.105Z,2.17
2023-04-16T03:46:01.041Z,2.23
2023-04-16T03:48:28.311Z,2.28
2023-04-16T03:50:56.015Z,2.34
2023-04-16T03:53:23.670Z,2.36
2023-04-16T03:55:53.159Z,2.42
2023-04-16T03:58:21.968Z,2.50
2023-04-16T04:00:49.270Z,2.63
2023-04-16T04:03:18.759Z,2.72
2023-04-16T04:05:50.585Z,2.81
2023-04-16T04:08:25.152Z,2.82
2023-04-16T04:10:54.246Z,2.89
2023-04-16T04:13:23.765Z,2.93
2023-04-16T04:15:52.658Z,3.01
2023-04-16T04:18:24.091Z,3.13
2023-04-16T04:20:51.803Z,3.24
2023-04-16T04:23:21.483Z,3.30
2023-04-16T04:25:49.013Z,3.36
2023-04-16T04:28:17.795Z,3.44
2023-04-16T04:30:45.363Z,3.54
2023-04-16T04:33:13.344Z,3.60
2023-04-16T04:35:40.997Z,3.68
2023-04-16T04:38:09.501Z,3.80
2023-04-16T04:40:36.931Z,3.91
2023-04-16T04:43:07.326Z,3.98
2023-04-16T04:45:36.253Z,4.16
2023-04-16T04:48:05.606Z,4.30
2023-04-16T04:50:33.120Z,4.35
2023-04-16T04:53:01.025Z,4.43
2023-04-16T04:55:28.393Z,4.46
2023-04-16T04:57:56.445Z,4.59
2023-04-16T05:00:23.856Z,4.71
2023-04-16T05:02:56.458Z,4.84
2023-04-16T05:05:23.968Z,4.88
2023-04-16T05:07:51.385Z,5.00
2023-04-16T05:10:18.694Z,5.09
2023-04-16T05:12:49.169Z,5.18
2023-04-16T05:15:16.722Z,5.25
2023-04-16T05:17:44.135Z,5.28
2023-04-16T05:20:13.064Z,5.38
2023-04-16T05:22:40.518Z,5.51
2023-04-16T05:25:09.000Z,5.67
2023-04-16T05:27:37.208Z,5.81
2023-04-16T05:30:05.610Z,5.81
2023-04-16T05:32:33.542Z,5.89
2023-04-16T05:35:01.187Z,5.91
2023-04-16T05:37:30.822Z,6.03
2023-04-16T05:39:58.123Z,6.30
2023-04-16T05:42:25.646Z,6.53
2023-04-16T05:44:53.110Z,6.77
2023-04-16T05:47:20.650Z,7.00
2023-04-16T05:49:48.040Z,7.17
2023-04-16T05:52:15.606Z,7.32
2023-04-16T05:54:44.246Z,7.62
2023-04-16T05:57:11.875Z,7.91
2023-04-16T05:59:39.202Z,8.15
2023-04-16T06:02:07.349Z,8.40
2023-04-16T06:04:35.945Z,8.64
2023-04-16T06:07:03.606Z,8.73
2023-04-16T06:09:31.148Z,8.60
2023-04-16T06:12:00.139Z,8.38
2023-04-16T06:14:27.826Z,8.38
2023-04-16T06:16:55.641Z,8.51
2023-04-16T06:19:23.206Z,8.73
2023-04-16T06:21:51.290Z,8.87
2023-04-16T06:24:18.614Z,8.97
2023-04-16T06:26:46.021Z,8.92
2023-04-16T06:29:15.427Z,8.75
2023-04-16T06:31:42.952Z,8.54
2023-04-16T06:34:10.552Z,8.52
2023-04-16T06:36:37.927Z,8.54
2023-04-16T06:39:05.315Z,8.55
2023-04-16T06:41:32.748Z,8.50
2023-04-16T06:44:00.010Z,8.57
2023-04-16T06:46:28.777Z,8.59
2023-04-16T06:48:56.166Z,8.64
2023-04-16T06:51:23.493Z,8.77
2023-04-16T06:53:51.376Z,8.85
2023-04-16T06:56:18.885Z,8.93
2023-04-16T06:58:46.300Z,8.90
2023-04-16T07:01:13.835Z,8.97
2023-04-16T07:03:43.128Z,9.04
2023-04-16T07:06:10.895Z,9.13
2023-04-16T07:08:38.473Z,9.27
2023-04-16T07:11:06.150Z,9.41
2023-04-16T07:13:33.650Z,9.35
2023-04-16T07:16:01.032Z,9.31
2023-04-16T07:18:28.570Z,9.38
2023-04-16T07:20:57.571Z,9.36
2023-04-16T07:23:24.977Z,9.35
2023-04-16T07:25:52.306Z,9.29
2023-04-16T07:28:20.413Z,9.35
2023-04-16T07:30:47.938Z,9.29
2023-04-16T07:33:15.655Z,9.30
2023-04-16T07:35:43.271Z,9.30
2023-04-16T07:38:12.094Z,9.36
2023-04-16T07:40:39.534Z,9.42
2023-04-16T07:43:07.321Z,9.43
2023-04-16T07:45:34.798Z,9.46
2023-04-16T07:48:02.240Z,9.56
2023-04-16T07:50:29.766Z,9.54
2023-04-16T07:52:57.119Z,9.64
2023-04-16T07:55:26.019Z,9.87
2023-04-16T07:57:53.981Z,10.01
2023-04-16T08:00:21.826Z,10.23
2023-04-16T08:02:49.534Z,10.53
2023-04-16T08:05:17.267Z,10.73
2023-04-16T08:07:44.697Z,10.62
2023-04-16T08:10:12.968Z,10.65
2023-04-16T08:12:41.820Z,10.94
2023-04-16T08:15:10.094Z,11.26
2023-04-16T08:17:37.916Z,11.39
2023-04-16T08:20:09.510Z,11.43
2023-04-16T08:22:37.403Z,11.41
2023-04-16T08:25:05.221Z,11.41
2023-04-16T08:27:32.642Z,11.37
2023-04-16T08:30:01.395Z,11.38
2023-04-16T08:32:32.857Z,11.59
2023-04-16T08:35:03.361Z,11.87
2023-04-16T08:37:32.150Z,12.13
2023-04-16T08:40:01.185Z,12.02
2023-04-16T08:42:34.519Z,11.94
2023-04-16T08:45:16.228Z,12.15
2023-04-16T08:47:46.933Z,12.30
2023-04-16T08:50:15.851Z,12.50
2023-04-16T08:52:47.321Z,12.58
2023-04-16T08:55:19.000Z,12.60
2023-04-16T08:57:49.700Z,12.40
2023-04-16T09:00:19.435Z,12.32
2023-04-16T09:02:47.154Z,12.04
2023-04-16T09:05:21.933Z,11.90
2023-04-16T09:07:49.449Z,11.83
2023-04-16T09:10:17.933Z,11.81
2023-04-16T09:12:45.294Z,11.94
2023-04-16T09:15:13.761Z,12.10
2023-04-16T09:17:42.557Z,12.25
2023-04-16T09:20:11.204Z,12.24
2023-04-16T09:22:40.511Z,12.14
2023-04-16T09:25:08.962Z,12.16
2023-04-16T09:27:37.064Z,12.07
2023-04-16T09:30:22.017Z,12.03
2023-04-16T09:32:51.449Z,11.92
2023-04-16T09:35:20.472Z,11.92
2023-04-16T09:37:57.849Z,11.99
2023-04-16T09:40:27.353Z,12.09
2023-04-16T09:42:58.601Z,12.26
2023-04-16T09:45:26.416Z,12.27
2023-04-16T09:48:04.129Z,12.41
2023-04-16T09:50:31.593Z,12.42
2023-04-16T09:53:03.676Z,12.26
2023-04-16T09:55:30.646Z,12.17
2023-04-16T09:58:01.865Z,11.84
2023-04-16T10:00:30.806Z,11.82
2023-04-16T10:03:06.193Z,12.18
2023-04-16T10:05:33.947Z,12.55
2023-04-16T10:08:04.354Z,12.91
2023-04-16T10:10:32.587Z,13.01
2023-04-16T10:13:00.259Z,13.13
2023-04-16T10:15:28.400Z,13.31
2023-04-16T10:17:57.161Z,13.58
2023-04-16T10:20:27.074Z,13.50
2023-04-16T10:22:55.060Z,13.36
2023-04-16T10:25:28.559Z,12.84
2023-04-16T10:28:02.848Z,12.79
2023-04-16T10:30:30.474Z,13.01
2023-04-16T10:33:02.936Z,13.25
2023-04-16T10:35:36.061Z,13.38
2023-04-16T10:38:27.752Z,13.28
2023-04-16T10:41:03.209Z,13.24
2023-04-16T10:43:31.257Z,13.33
2023-04-16T10:46:18.407Z,13.50
2023-04-16T10:48:50.434Z,13.87
2023-04-16T10:51:28.774Z,14.11
2023-04-16T10:53:57.258Z,14.25
2023-04-16T10:56:25.743Z,14.25
2023-04-16T10:58:59.243Z,14.20
2023-04-16T11:01:37.396Z,14.05
2023-04-16T11:04:28.804Z,14.06
2023-04-16T11:07:18.843Z,13.92
2023-04-16T11:09:57.760Z,13.94
2023-04-16T11:12:29.358Z,14.09
2023-04-16T11:15:03.114Z,14.18
2023-04-16T11:17:38.103Z,14.20
2023-04-16T11:20:20.181Z,14.11
2023-04-16T11:22:51.677Z,14.03
2023-04-16T11:25:23.058Z,14.09
2023-04-16T11:27:51.079Z,14.06
2023-04-16T11:30:19.535Z,13.95
2023-04-16T11:32:47.140Z,14.03
2023-04-16T11:35:17.091Z,14.17
2023-04-16T11:37:44.777Z,14.23
2023-04-16T11:40:14.177Z,14.31
2023-04-16T11:42:42.268Z,14.37
2023-04-16T11:45:12.009Z,14.64
2023-04-16T11:47:46.490Z,14.85
2023-04-16T11:50:19.087Z,14.94
2023-04-16T11:52:47.171Z,15.17
2023-04-16T11:55:16.205Z,15.04
2023-04-16T11:57:43.895Z,15.00
2023-04-16T12:00:15.358Z,15.12
2023-04-16T12:02:46.280Z,15.48
2023-04-16T12:05:30.900Z,15.86
2023-04-16T12:08:00.466Z,15.92
2023-04-16T12:10:32.219Z,15.81
2023-04-16T12:13:12.716Z,15.71
2023-04-16T12:15:48.230Z,15.67
2023-04-16T12:18:18.746Z,15.65
2023-04-16T12:20:46.999Z,15.99
2023-04-16T12:23:24.170Z,16.24
2023-04-16T12:25:53.246Z,16.15
2023-04-16T12:28:31.331Z,15.88
2023-04-16T12:30:58.783Z,15.77
2023-04-16T12:33:26.399Z,15.60
2023-04-16T12:35:54.989Z,15.55
2023-04-16T12:38:24.505Z,15.21
2023-04-16T12:40:56.967Z,15.37
2023-04-16T12:43:25.259Z,15.85
2023-04-16T12:45:53.071Z,16.10
2023-04-16T12:48:20.907Z,16.24
2023-04-16T12:50:48.327Z,16.52
2023-04-16T12:53:15.806Z,16.61
2023-04-16T12:55:45.468Z,16.77
2023-04-16T12:58:14.253Z,16.67
2023-04-16T13:00:41.588Z,16.75
2023-04-16T13:03:09.207Z,16.74
2023-04-16T13:05:37.910Z,16.04
2023-04-16T13:08:05.931Z,15.82
2023-04-16T13:10:33.421Z,15.87
2023-04-16T13:13:00.862Z,15.89
2023-04-16T13:15:32.134Z,16.19
2023-04-16T13:17:59.579Z,16.21
2023-04-16T13:20:27.017Z,16.46
2023-04-16T13:22:54.489Z,16.36
2023-04-16T13:25:21.897Z,16.68
2023-04-16T13:27:49.353Z,17.06
2023-04-16T13:30:17.026Z,17.09
2023-04-16T13:32:46.004Z,17.15
2023-04-16T13:35:13.326Z,17.49
2023-04-16T13:37:51.326Z,17.42
2023-04-16T13:40:18.758Z,17.49
2023-04-16T13:42:46.148Z,17.49
2023-04-16T13:45:13.581Z,17.35
2023-04-16T13:47:42.506Z,17.12
2023-04-16T13:50:11.960Z,16.89
2023-04-16T13:52:39.322Z,16.83
2023-04-16T13:55:09.599Z,17.01
2023-04-16T13:57:37.425Z,16.89
2023-04-16T14:00:05.728Z,16.86
2023-04-16T14:02:34.149Z,16.78
2023-04-16T14:05:01.715Z,16.61
2023-04-16T14:07:32.835Z,16.20
2023-04-16T14:10:00.408Z,16.10
2023-04-16T14:12:28.542Z,15.71
2023-04-16T14:14:56.572Z,15.36
2023-04-16T14:17:23.936Z,15.26
2023-04-16T14:19:51.496Z,15.65
2023-04-16T14:22:18.891Z,16.01
2023-04-16T14:24:47.600Z,15.97
2023-04-16T14:27:15.077Z,16.32
2023-04-16T14:29:42.561Z,16.38
2023-04-16T14:32:09.957Z,15.89
2023-04-16T14:34:37.534Z,15.28
2023-04-16T14:37:05.793Z,14.94
2023-04-16T14:39:33.361Z,14.54
2023-04-16T14:42:02.205Z,14.66
2023-04-16T14:44:29.671Z,14.96
2023-04-16T14:46:57.100Z,15.19
2023-04-16T14:49:24.974Z,15.19
2023-04-16T14:51:52.629Z,15.22
2023-04-16T14:54:20.350Z,15.05
2023-04-16T14:56:47.691Z,14.85
2023-04-16T14:59:16.463Z,14.62
2023-04-16T15:01:44.145Z,14.38
2023-04-16T15:04:12.019Z,14.04
2023-04-16T15:06:39.954Z,13.74
2023-04-16T15:09:08.318Z,13.55
2023-04-16T15:11:38.291Z,13.28
2023-04-16T15:14:05.685Z,13.23
2023-04-16T15:16:34.895Z,13.23
2023-04-16T15:19:04.862Z,13.22
2023-04-16T15:21:33.048Z,13.14
2023-04-16T15:24:00.562Z,13.10
2023-04-16T15:26:28.099Z,13.06
2023-04-16T15:28:55.631Z,12.96
2023-04-16T15:31:23.093Z,12.86
2023-04-16T15:33:52.914Z,12.85
2023-04-16T15:36:20.985Z,12.82
2023-04-16T15:38:48.486Z,12.87
2023-04-16T15:41:15.977Z,12.85
2023-04-16T15:43:43.336Z,12.80
2023-04-16T15:46:10.932Z,12.78
2023-04-16T15:48:38.392Z,12.77
2023-04-16T15:51:07.450Z,12.73
2023-04-16T15:53:35.220Z,12.69
2023-04-16T15:56:04.331Z,12.68
2023-04-16T15:58:31.723Z,12.69
2023-04-16T16:01:02.756Z,12.71
2023-04-16T16:03:32.336Z,12.72
2023-04-16T16:06:09.080Z,12.71
2023-04-16T16:08:38.524Z,12.66
2023-04-16T16:11:06.103Z,12.64
2023-04-16T16:13:33.458Z,12.59
2023-04-16T16:16:01.120Z,12.52
2023-04-16T16:18:29.584Z,12.46
2023-04-16T16:21:00.661Z,12.42
2023-04-16T16:23:33.845Z,12.38
2023-04-16T16:26:08.497Z,12.37
2023-04-16T16:28:38.744Z,12.31
2023-04-16T16:31:07.030Z,12.27
2023-04-16T16:33:34.424Z,12.25
2023-04-16T16:36:01.951Z,12.24
2023-04-16T16:38:29.371Z,12.24
2023-04-16T16:40:56.767Z,12.15
2023-04-16T16:43:25.705Z,12.05
2023-04-16T16:45:53.008Z,11.98
2023-04-16T16:48:20.282Z,11.94
2023-04-16T16:50:47.624Z,11.93
2023-04-16T16:53:17.968Z,11.86
2023-04-16T16:55:45.294Z,11.78
2023-04-16T16:58:12.662Z,11.77
2023-04-16T17:00:41.746Z,11.73
2023-04-16T17:03:09.627Z,11.69
2023-04-16T17:05:37.718Z,11.68
2023-04-16T17:08:06.694Z,11.65
2023-04-16T17:10:35.348Z,11.64
2023-04-16T17:13:02.724Z,11.60
2023-04-16T17:15:30.211Z,11.55
2023-04-16T17:17:58.968Z,11.50
2023-04-16T17:20:26.618Z,11.48
2023-04-16T17:22:54.303Z,11.44
2023-04-16T17:25:21.716Z,11.44
2023-04-16T17:27:49.269Z,11.45
2023-04-16T17:30:17.023Z,11.44
2023-04-16T17:32:44.599Z,11.41
2023-04-16T17:35:13.989Z,11.41
2023-04-16T17:37:41.893Z,11.39
2023-04-16T17:40:10.194Z,11.36
2023-04-16T17:42:38.954Z,11.33
2023-04-16T17:45:07.531Z,11.31
2023-04-16T17:47:36.058Z,11.31
2023-04-16T17:50:04.008Z,11.31
2023-04-16T17:52:33.232Z,11.30
2023-04-16T17:55:01.746Z,11.30
2023-04-16T17:57:32.061Z,11.26
2023-04-16T17:59:59.436Z,11.22
2023-04-16T18:02:27.260Z,11.17
2023-04-16T18:04:54.802Z,11.11
2023-04-16T18:07:22.449Z,11.07
2023-04-16T18:09:51.293Z,11.06
2023-04-16T18:12:18.642Z,11.07
2023-04-16T18:14:46.305Z,11.04
2023-04-16T18:17:13.773Z,11.05
2023-04-16T18:19:43.790Z,11.04
2023-04-16T18:22:13.278Z,11.06
2023-04-16T18:24:40.818Z,11.09
2023-04-16T18:27:09.729Z,11.10
2023-04-16T18:29:39.635Z,11.09
2023-04-16T18:32:11.442Z,11.07
2023-04-16T18:34:39.798Z,11.05
2023-04-16T18:37:07.605Z,10.98
2023-04-16T18:39:36.517Z,10.91
2023-04-16T18:42:04.230Z,10.90
2023-04-16T18:44:32.920Z,10.89
2023-04-16T18:47:00.482Z,10.88
2023-04-16T18:49:27.924Z,10.89
2023-04-16T18:51:55.992Z,10.87
2023-04-16T18:54:23.391Z,10.86
2023-04-16T18:56:51.020Z,10.87
2023-04-16T18:59:18.284Z,10.86
2023-04-16T19:01:47.025Z,10.81
2023-04-16T19:04:14.623Z,10.75
2023-04-16T19:06:42.254Z,10.69
2023-04-16T19:09:11.429Z,10.67
2023-04-16T19:11:39.110Z,10.65
2023-04-16T19:14:07.929Z,10.64
2023-04-16T19:16:35.504Z,10.63
2023-04-16T19:19:04.390Z,10.61
2023-04-16T19:21:32.627Z,10.62
2023-04-16T19:24:00.069Z,10.58
2023-04-16T19:26:28.092Z,10.53
2023-04-16T19:28:55.450Z,10.49
2023-04-16T19:31:22.924Z,10.46
2023-04-16T19:33:50.396Z,10.38
2023-04-16T19:36:19.100Z,10.34
2023-04-16T19:38:46.637Z,10.31
2023-04-16T19:41:13.949Z,10.28
2023-04-16T19:43:41.162Z,10.24
2023-04-16T19:46:08.595Z,10.17
2023-04-16T19:48:36.524Z,10.10
2023-04-16T19:51:04.376Z,10.07
2023-04-16T19:53:34.546Z,10.06
2023-04-16T19:56:01.911Z,10.03
2023-04-16T19:58:29.349Z,10.03
2023-04-16T20:00:56.859Z,10.05
2023-04-16T20:03:24.525Z,10.05
2023-04-16T20:05:51.833Z,10.02
2023-04-16T20:08:19.091Z,10.02
2023-04-16T20:10:48.203Z,9.96
2023-04-16T20:13:17.401Z,9.91
2023-04-16T20:15:47.311Z,9.87
2023-04-16T20:18:14.745Z,9.84
2023-04-16T20:20:42.147Z,9.78
2023-04-16T20:23:09.473Z,9.72
2023-04-16T20:25:41.634Z,9.76
2023-04-16T20:28:10.221Z,9.77
2023-04-16T20:30:40.406Z,9.74
2023-04-16T20:33:07.921Z,9.71
2023-04-16T20:35:35.383Z,9.69
2023-04-16T20:38:02.987Z,9.64
2023-04-16T20:40:30.544Z,9.56
2023-04-16T20:43:00.029Z,9.56
2023-04-16T20:45:38.444Z,9.56
2023-04-16T20:48:06.287Z,9.55
2023-04-16T20:50:34.045Z,9.49
2023-04-16T20:53:01.713Z,9.46
2023-04-16T20:55:29.347Z,9.44
2023-04-16T20:57:56.549Z,9.35
2023-04-16T21:00:24.262Z,9.40
2023-04-16T21:02:53.283Z,9.36
2023-04-16T21:05:21.532Z,9.32
2023-04-16T21:07:48.979Z,9.30
2023-04-16T21:10:20.398Z,9.26
2023-04-16T21:12:49.563Z,9.23
2023-04-16T21:15:17.056Z,9.18
2023-04-16T21:17:44.515Z,9.13
2023-04-16T21:20:14.140Z,9.07
2023-04-16T21:22:41.492Z,9.04
2023-04-16T21:25:09.899Z,9.06
2023-04-16T21:27:37.268Z,9.02
2023-04-16T21:30:05.353Z,8.99
2023-04-16T21:32:32.840Z,9.06
2023-04-16T21:35:00.778Z,9.06
2023-04-16T21:37:29.569Z,9.04
2023-04-16T21:39:56.897Z,9.01
2023-04-16T21:42:24.465Z,9.03
2023-04-16T21:44:51.787Z,9.07
2023-04-16T21:47:19.528Z,9.07
2023-04-16T21:49:46.864Z,9.07
2023-04-16T21:52:20.373Z,9.05
2023-04-16T21:54:49.117Z,8.99
2023-04-16T21:57:16.789Z,8.92
2023-04-16T21:59:44.155Z,8.87
2023-04-16T22:02:11.469Z,8.82
2023-04-16T22:04:39.158Z,8.81
2023-04-16T22:07:11.795Z,8.74
2023-04-16T22:09:39.250Z,8.73
2023-04-16T22:12:10.378Z,8.70
2023-04-16T22:14:42.045Z,8.62
2023-04-16T22:17:15.136Z,8.64
2023-04-16T22:19:42.820Z,8.65
2023-04-16T22:22:10.502Z,8.65
2023-04-16T22:24:37.783Z,8.62
2023-04-16T22:27:05.152Z,8.58
2023-04-16T22:29:33.912Z,8.53
2023-04-16T22:32:02.027Z,8.53
2023-04-16T22:34:29.742Z,8.54
2023-04-16T22:36:57.176Z,8.55
2023-04-16T22:39:24.577Z,8.56
2023-04-16T22:41:51.803Z,8.57
2023-04-16T22:44:19.271Z,8.55
2023-04-16T22:46:48.058Z,8.51
2023-04-16T22:49:15.576Z,8.51
2023-04-16T22:51:43.551Z,8.46
2023-04-16T22:54:13.807Z,8.47
2023-04-16T22:56:41.668Z,8.45
2023-04-16T22:59:09.135Z,8.44
2023-04-16T23:01:36.867Z,8.42
2023-04-16T23:04:06.003Z,8.32
2023-04-16T23:06:33.256Z,8.22
2023-04-16T23:09:00.744Z,8.21
2023-04-16T23:11:28.069Z,8.17
2023-04-16T23:13:55.912Z,8.12
2023-04-16T23:16:23.174Z,8.14
2023-04-16T23:18:50.539Z,8.11
2023-04-16T23:21:19.176Z,8.09
2023-04-16T23:23:46.794Z,8.11
2023-04-16T23:26:14.089Z,8.09
2023-04-16T23:28:41.772Z,8.08
2023-04-16T23:31:09.268Z,8.05
2023-04-16T23:33:36.648Z,8.02
2023-04-16T23:36:04.562Z,7.93
2023-04-16T23:38:33.354Z,7.92
2023-04-16T23:41:01.071Z,7.88
2023-04-16T23:43:28.293Z,7.83
2023-04-16T23:45:55.978Z,7.75
2023-04-16T23:48:23.379Z,7.72
2023-04-16T23:50:50.903Z,7.71
2023-04-16T23:53:18.186Z,7.70
2023-04-16T23:55:47.014Z,7.72
2023-04-16T23:58:14.278Z,7.69
